Aviation Digital Data Service (ADDS)

Output produced by TAFs form (0752 UTC 21 November 2017)
found at http://www.aviationweather.gov/adds/tafs/
 
METAR text: LFMY 210730Z AUTO 29003KT 260V340 9999 ////// 06/M00 Q1020
Conditions at: LFMY (SALON (FAFB) , FR) observed 0730 UTC 21 November 2017
Temperature: 6.0°C (43°F)
Dewpoint: 0.0°C (32°F) [RH = 65%]
Pressure (altimeter): 30.12 inches Hg (1020.0 mb)
Winds: from the WNW (290 degrees) at 3 MPH (3 knots; 1.6 m/s)
Visibility: 6 or more miles (10+ km)
Ceiling: unknown
Clouds: missing
Weather: no significant weather observed at this time

Forecast for: LFMY (SALON (FAFB) , FR)
Text: TAF LFMY 201400Z 2015/2115 34012KT CAVOK
Forecast period: 1500 UTC 20 November 2017 to 1500 UTC 21 November 2017
Forecast type: FROM: standard forecast or significant change
Winds: from the NNW (340 degrees) at 14 MPH (12 knots; 6.2 m/s)
Visibility: 6 or more miles (10+ km)
Clouds: not forecast
Weather: NSW  (no significant weather)